sensor_id;sensor_type;location;lat;lon;timestamp;pressure;altitude;pressure_sealevel;temperature;humidity
20003;BME280;10162;41.600;23.806;2023-11-21T00:00:31;95064.72;;;1.78;100.00
20003;BME280;10162;41.600;23.806;2023-11-21T00:02:59;95044.91;;;1.51;100.00
20003;BME280;10162;41.600;23.806;2023-11-21T00:13:52;95039.97;;;1.30;100.00
20003;BME280;10162;41.600;23.806;2023-11-21T00:20:57;95074.75;;;1.53;100.00
20003;BME280;10162;41.600;23.806;2023-11-21T00:26:54;95073.88;;;1.62;100.00
20003;BME280;10162;41.600;23.806;2023-11-21T00:29:52;95077.06;;;1.47;100.00
20003;BME280;10162;41.600;23.806;2023-11-21T00:32:46;95059.22;;;1.63;100.00
20003;BME280;10162;41.600;23.806;2023-11-21T00:42:47;95071.69;;;1.31;100.00
20003;BME280;10162;41.600;23.806;2023-11-21T00:52:35;95061.22;;;1.42;100.00
20003;BME280;10162;41.600;23.806;2023-11-21T01:01:51;95054.81;;;1.46;100.00
20003;BME280;10162;41.600;23.806;2023-11-21T01:13:28;95087.09;;;1.40;100.00
20003;BME280;10162;41.600;23.806;2023-11-21T01:16:59;95038.94;;;1.13;100.00
20003;BME280;10162;41.600;23.806;2023-11-21T01:20:09;95073.00;;;1.72;100.00
20003;BME280;10162;41.600;23.806;2023-11-21T01:34:30;95056.75;;;1.34;100.00
20003;BME280;10162;41.600;23.806;2023-11-21T01:37:03;95078.72;;;1.29;100.00
20003;BME280;10162;41.600;23.806;2023-11-21T01:39:46;95052.13;;;1.38;100.00
20003;BME280;10162;41.600;23.806;2023-11-21T01:43:06;95009.94;;;1.11;100.00
20003;BME280;10162;41.600;23.806;2023-11-21T01:46:01;95071.66;;;1.40;100.00
20003;BME280;10162;41.600;23.806;2023-11-21T01:51:37;95051.72;;;1.42;100.00
20003;BME280;10162;41.600;23.806;2023-11-21T02:02:34;95053.88;;;1.47;100.00
20003;BME280;10162;41.600;23.806;2023-11-21T02:10:34;95060.97;;;1.25;100.00
20003;BME280;10162;41.600;23.806;2023-11-21T02:13:29;95028.97;;;0.81;100.00
20003;BME280;10162;41.600;23.806;2023-11-21T02:16:00;95031.78;;;1.07;100.00
20003;BME280;10162;41.600;23.806;2023-11-21T02:22:25;95063.19;;;0.92;100.00
20003;BME280;10162;41.600;23.806;2023-11-21T02:25:10;95072.97;;;1.07;100.00
20003;BME280;10162;41.600;23.806;2023-11-21T02:28:23;95054.59;;;1.30;100.00
20003;BME280;10162;41.600;23.806;2023-11-21T02:32:04;95020.19;;;0.65;100.00
20003;BME280;10162;41.600;23.806;2023-11-21T02:35:16;95066.59;;;1.48;100.00
20003;BME280;10162;41.600;23.806;2023-11-21T02:41:52;95031.56;;;0.43;100.00
20003;BME280;10162;41.600;23.806;2023-11-21T02:44:35;95032.75;;;0.97;100.00
20003;BME280;10162;41.600;23.806;2023-11-21T02:47:04;95063.22;;;1.01;100.00
20003;BME280;10162;41.600;23.806;2023-11-21T02:49:39;95027.53;;;1.16;100.00
20003;BME280;10162;41.600;23.806;2023-11-21T02:52:21;95023.41;;;0.96;100.00
20003;BME280;10162;41.600;23.806;2023-11-21T02:58:28;95047.47;;;1.04;100.00
20003;BME280;10162;41.600;23.806;2023-11-21T03:01:00;95062.22;;;1.21;100.00
20003;BME280;10162;41.600;23.806;2023-11-21T03:04:14;95061.63;;;1.37;100.00
20003;BME280;10162;41.600;23.806;2023-11-21T03:07:12;95042.00;;;1.27;100.00
20003;BME280;10162;41.600;23.806;2023-11-21T03:09:45;95039.38;;;0.90;100.00
20003;BME280;10162;41.600;23.806;2023-11-21T03:12:26;95052.81;;;0.74;100.00
20003;BME280;10162;41.600;23.806;2023-11-21T03:15:35;95052.91;;;1.01;100.00
20003;BME280;10162;41.600;23.806;2023-11-21T03:22:23;95049.94;;;0.96;100.00
20003;BME280;10162;41.600;23.806;2023-11-21T03:25:55;95052.63;;;1.04;100.00
20003;BME280;10162;41.600;23.806;2023-11-21T03:28:25;95028.81;;;1.02;100.00
20003;BME280;10162;41.600;23.806;2023-11-21T03:31:20;95034.38;;;0.78;100.00
20003;BME280;10162;41.600;23.806;2023-11-21T03:34:09;95048.56;;;1.11;100.00
20003;BME280;10162;41.600;23.806;2023-11-21T03:40:20;95027.72;;;0.86;100.00
20003;BME280;10162;41.600;23.806;2023-11-21T03:43:24;95051.16;;;1.02;100.00
20003;BME280;10162;41.600;23.806;2023-11-21T03:49:33;95034.44;;;1.15;100.00
20003;BME280;10162;41.600;23.806;2023-11-21T03:52:29;95035.09;;;0.61;100.00
20003;BME280;10162;41.600;23.806;2023-11-21T03:58:55;95051.44;;;0.31;100.00
20003;BME280;10162;41.600;23.806;2023-11-21T04:01:27;95060.53;;;0.45;100.00
20003;BME280;10162;41.600;23.806;2023-11-21T04:04:30;95049.44;;;0.73;100.00
20003;BME280;10162;41.600;23.806;2023-11-21T04:10:27;95068.50;;;0.42;100.00
20003;BME280;10162;41.600;23.806;2023-11-21T04:17:03;95052.41;;;0.50;100.00
20003;BME280;10162;41.600;23.806;2023-11-21T04:22:48;95049.81;;;0.40;100.00
20003;BME280;10162;41.600;23.806;2023-11-21T04:25:41;95059.19;;;0.60;100.00
20003;BME280;10162;41.600;23.806;2023-11-21T04:28:13;95060.94;;;0.69;100.00
20003;BME280;10162;41.600;23.806;2023-11-21T04:30:48;95046.41;;;0.88;100.00
20003;BME280;10162;41.600;23.806;2023-11-21T04:52:12;95074.06;;;0.37;100.00
20003;BME280;10162;41.600;23.806;2023-11-21T04:55:29;95079.34;;;0.74;100.00
20003;BME280;10162;41.600;23.806;2023-11-21T04:57:55;95076.53;;;0.68;100.00
20003;BME280;10162;41.600;23.806;2023-11-21T05:00:24;95048.63;;;0.54;100.00
20003;BME280;10162;41.600;23.806;2023-11-21T05:03:49;95080.41;;;0.53;100.00
20003;BME280;10162;41.600;23.806;2023-11-21T05:07:12;95060.66;;;0.72;100.00
20003;BME280;10162;41.600;23.806;2023-11-21T05:09:48;95023.56;;;0.46;100.00
20003;BME280;10162;41.600;23.806;2023-11-21T05:12:24;95049.44;;;0.54;100.00
20003;BME280;10162;41.600;23.806;2023-11-21T05:15:33;95085.81;;;0.98;100.00
20003;BME280;10162;41.600;23.806;2023-11-21T05:18:03;95045.50;;;0.60;100.00
20003;BME280;10162;41.600;23.806;2023-11-21T05:20:45;95066.22;;;0.58;100.00
20003;BME280;10162;41.600;23.806;2023-11-21T05:27:08;95089.84;;;1.29;100.00
20003;BME280;10162;41.600;23.806;2023-11-21T05:42:11;95093.00;;;0.94;100.00
20003;BME280;10162;41.600;23.806;2023-11-21T05:48:42;95094.88;;;1.67;100.00
20003;BME280;10162;41.600;23.806;2023-11-21T06:29:38;95092.13;;;2.51;100.00
20003;BME280;10162;41.600;23.806;2023-11-21T06:32:08;95084.59;;;2.40;100.00
20003;BME280;10162;41.600;23.806;2023-11-21T06:38:28;95114.28;;;2.89;100.00
20003;BME280;10162;41.600;23.806;2023-11-21T06:40:56;95098.34;;;2.76;100.00
20003;BME280;10162;41.600;23.806;2023-11-21T06:47:18;95104.44;;;2.75;100.00
20003;BME280;10162;41.600;23.806;2023-11-21T06:49:46;95099.59;;;2.89;100.00
20003;BME280;10162;41.600;23.806;2023-11-21T06:52:13;95124.00;;;3.13;100.00
20003;BME280;10162;41.600;23.806;2023-11-21T06:57:52;95124.50;;;2.99;100.00
20003;BME280;10162;41.600;23.806;2023-11-21T07:00:18;95132.81;;;3.28;100.00
20003;BME280;10162;41.600;23.806;2023-11-21T07:02:46;95111.97;;;3.47;100.00
20003;BME280;10162;41.600;23.806;2023-11-21T07:05:20;95121.97;;;3.68;100.00
20003;BME280;10162;41.600;23.806;2023-11-21T07:07:50;95089.78;;;3.62;100.00
20003;BME280;10162;41.600;23.806;2023-11-21T07:10:19;95087.31;;;3.87;100.00
20003;BME280;10162;41.600;23.806;2023-11-21T07:12:48;95103.78;;;4.20;100.00
20003;BME280;10162;41.600;23.806;2023-11-21T07:15:48;95135.19;;;4.83;100.00
20003;BME280;10162;41.600;23.806;2023-11-21T07:18:18;95117.81;;;4.67;100.00
20003;BME280;10162;41.600;23.806;2023-11-21T07:20:44;95097.97;;;5.08;100.00
20003;BME280;10162;41.600;23.806;2023-11-21T07:23:09;95115.31;;;5.24;100.00
20003;BME280;10162;41.600;23.806;2023-11-21T07:25:35;95120.47;;;5.56;100.00
20003;BME280;10162;41.600;23.806;2023-11-21T07:28:01;95114.66;;;5.46;100.00
20003;BME280;10162;41.600;23.806;2023-11-21T07:30:27;95125.50;;;5.58;100.00
20003;BME280;10162;41.600;23.806;2023-11-21T07:32:54;95085.78;;;5.49;100.00
20003;BME280;10162;41.600;23.806;2023-11-21T07:35:55;95126.59;;;5.79;100.00
20003;BME280;10162;41.600;23.806;2023-11-21T07:38:23;95084.97;;;5.49;100.00
20003;BME280;10162;41.600;23.806;2023-11-21T07:40:49;95112.78;;;6.42;100.00
20003;BME280;10162;41.600;23.806;2023-11-21T07:46:39;95091.16;;;5.39;100.00
20003;BME280;10162;41.600;23.806;2023-11-21T07:49:05;95104.03;;;5.96;100.00
20003;BME280;10162;41.600;23.806;2023-11-21T07:51:32;95080.59;;;6.20;100.00
20003;BME280;10162;41.600;23.806;2023-11-21T07:54:29;95117.34;;;6.71;100.00
20003;BME280;10162;41.600;23.806;2023-11-21T07:56:56;95087.81;;;6.41;100.00
20003;BME280;10162;41.600;23.806;2023-11-21T07:59:22;95085.38;;;6.40;100.00
20003;BME280;10162;41.600;23.806;2023-11-21T08:01:47;95100.28;;;6.77;100.00
20003;BME280;10162;41.600;23.806;2023-11-21T08:04:27;95104.72;;;6.91;100.00
20003;BME280;10162;41.600;23.806;2023-11-21T08:06:53;95106.78;;;6.73;100.00
20003;BME280;10162;41.600;23.806;2023-11-21T08:09:19;95111.00;;;6.74;100.00
20003;BME280;10162;41.600;23.806;2023-11-21T08:11:49;95120.88;;;6.47;100.00
20003;BME280;10162;41.600;23.806;2023-11-21T08:17:41;95122.69;;;7.23;100.00
20003;BME280;10162;41.600;23.806;2023-11-21T08:20:11;95108.06;;;7.22;100.00
20003;BME280;10162;41.600;23.806;2023-11-21T08:22:37;95123.22;;;8.08;100.00
20003;BME280;10162;41.600;23.806;2023-11-21T08:25:08;95120.44;;;8.24;100.00
20003;BME280;10162;41.600;23.806;2023-11-21T08:27:34;95136.78;;;8.33;100.00
20003;BME280;10162;41.600;23.806;2023-11-21T08:30:02;95120.34;;;8.47;100.00
20003;BME280;10162;41.600;23.806;2023-11-21T08:32:28;95132.91;;;8.58;100.00
20003;BME280;10162;41.600;23.806;2023-11-21T08:35:00;95116.47;;;8.28;100.00
20003;BME280;10162;41.600;23.806;2023-11-21T08:37:27;95082.19;;;7.96;100.00
20003;BME280;10162;41.600;23.806;2023-11-21T08:39:54;95106.16;;;8.50;100.00
20003;BME280;10162;41.600;23.806;2023-11-21T08:42:21;95105.56;;;8.69;100.00
20003;BME280;10162;41.600;23.806;2023-11-21T08:48:42;95099.31;;;8.63;100.00
20003;BME280;10162;41.600;23.806;2023-11-21T08:51:11;95092.47;;;8.62;100.00
20003;BME280;10162;41.600;23.806;2023-11-21T08:53:42;95080.53;;;8.89;100.00
20003;BME280;10162;41.600;23.806;2023-11-21T08:56:14;95092.59;;;9.33;100.00
20003;BME280;10162;41.600;23.806;2023-11-21T08:58:40;95090.47;;;9.71;100.00
20003;BME280;10162;41.600;23.806;2023-11-21T09:01:07;95070.72;;;9.89;99.77
20003;BME280;10162;41.600;23.806;2023-11-21T09:03:57;95088.78;;;9.57;100.00
20003;BME280;10162;41.600;23.806;2023-11-21T09:06:24;95066.50;;;9.88;100.00
20003;BME280;10162;41.600;23.806;2023-11-21T09:08:50;95052.63;;;10.22;97.84
20003;BME280;10162;41.600;23.806;2023-11-21T09:11:17;95048.56;;;10.13;94.56
20003;BME280;10162;41.600;23.806;2023-11-21T09:14:06;95063.78;;;9.47;98.54
20003;BME280;10162;41.600;23.806;2023-11-21T09:16:33;95043.84;;;9.61;94.87
20003;BME280;10162;41.600;23.806;2023-11-21T09:18:59;95022.09;;;9.26;95.47
20003;BME280;10162;41.600;23.806;2023-11-21T09:21:24;95042.06;;;9.40;94.55
20003;BME280;10162;41.600;23.806;2023-11-21T09:26:40;95018.03;;;9.45;94.21
20003;BME280;10162;41.600;23.806;2023-11-21T09:29:06;95039.72;;;9.52;95.67
20003;BME280;10162;41.600;23.806;2023-11-21T09:31:33;95020.41;;;9.46;94.89
20003;BME280;10162;41.600;23.806;2023-11-21T09:37:14;95033.78;;;9.09;99.02
20003;BME280;10162;41.600;23.806;2023-11-21T09:39:40;95004.28;;;9.08;98.05
20003;BME280;10162;41.600;23.806;2023-11-21T09:47:19;95007.34;;;9.68;96.62
20003;BME280;10162;41.600;23.806;2023-11-21T09:49:48;94999.81;;;10.33;92.15
20003;BME280;10162;41.600;23.806;2023-11-21T09:52:22;95018.53;;;10.44;90.09
20003;BME280;10162;41.600;23.806;2023-11-21T09:58:02;95004.72;;;10.02;89.33
20003;BME280;10162;41.600;23.806;2023-11-21T10:00:30;94995.44;;;10.41;88.16
20003;BME280;10162;41.600;23.806;2023-11-21T10:02:59;94997.13;;;10.74;86.08
20003;BME280;10162;41.600;23.806;2023-11-21T10:08:36;94991.22;;;9.64;93.98
20003;BME280;10162;41.600;23.806;2023-11-21T10:11:03;94970.41;;;9.71;94.53
20003;BME280;10162;41.600;23.806;2023-11-21T10:13:41;94983.47;;;9.43;96.01
20003;BME280;10162;41.600;23.806;2023-11-21T10:16:18;94956.44;;;9.57;95.11
20003;BME280;10162;41.600;23.806;2023-11-21T10:18:49;94955.34;;;9.38;94.69
20003;BME280;10162;41.600;23.806;2023-11-21T10:21:18;94951.97;;;9.79;92.10
20003;BME280;10162;41.600;23.806;2023-11-21T10:24:13;94965.22;;;10.18;91.28
20003;BME280;10162;41.600;23.806;2023-11-21T10:26:39;94944.84;;;10.07;89.80
20003;BME280;10162;41.600;23.806;2023-11-21T10:29:04;94931.19;;;9.64;90.77
20003;BME280;10162;41.600;23.806;2023-11-21T10:31:33;94958.72;;;10.14;89.85
20003;BME280;10162;41.600;23.806;2023-11-21T10:37:11;94945.56;;;10.35;90.48
20003;BME280;10162;41.600;23.806;2023-11-21T10:39:38;94928.88;;;11.48;83.50
20003;BME280;10162;41.600;23.806;2023-11-21T10:42:08;94926.59;;;12.29;78.74
20003;BME280;10162;41.600;23.806;2023-11-21T10:47:38;94915.66;;;10.97;86.91
20003;BME280;10162;41.600;23.806;2023-11-21T10:50:05;94894.31;;;11.00;86.43
20003;BME280;10162;41.600;23.806;2023-11-21T10:52:31;94917.59;;;11.48;84.10
20003;BME280;10162;41.600;23.806;2023-11-21T10:55:25;94916.59;;;11.49;83.74
20003;BME280;10162;41.600;23.806;2023-11-21T10:57:54;94882.03;;;11.27;85.23
20003;BME280;10162;41.600;23.806;2023-11-21T11:00:22;94897.13;;;11.25;85.90
20003;BME280;10162;41.600;23.806;2023-11-21T11:02:51;94889.50;;;11.04;85.89
20003;BME280;10162;41.600;23.806;2023-11-21T11:05:30;94844.06;;;10.65;87.37
20003;BME280;10162;41.600;23.806;2023-11-21T11:08:05;94858.31;;;11.15;84.83
20003;BME280;10162;41.600;23.806;2023-11-21T11:10:31;94823.31;;;11.03;85.89
20003;BME280;10162;41.600;23.806;2023-11-21T11:12:58;94854.81;;;11.41;82.98
20003;BME280;10162;41.600;23.806;2023-11-21T11:19:08;94836.91;;;11.38;85.68
20003;BME280;10162;41.600;23.806;2023-11-21T11:29:58;94842.72;;;11.91;81.08
20003;BME280;10162;41.600;23.806;2023-11-21T11:32:46;94838.75;;;11.82;82.19
20003;BME280;10162;41.600;23.806;2023-11-21T11:39:29;94835.28;;;12.26;81.85
20003;BME280;10162;41.600;23.806;2023-11-21T11:42:13;94829.19;;;12.32;79.70
20003;BME280;10162;41.600;23.806;2023-11-21T11:47:30;94821.00;;;12.97;74.88
20003;BME280;10162;41.600;23.806;2023-11-21T11:50:05;94826.19;;;12.29;79.06
20003;BME280;10162;41.600;23.806;2023-11-21T11:52:53;94827.31;;;12.08;83.04
20003;BME280;10162;41.600;23.806;2023-11-21T11:58:37;94819.22;;;12.91;74.82
20003;BME280;10162;41.600;23.806;2023-11-21T12:01:06;94816.25;;;12.62;77.76
20003;BME280;10162;41.600;23.806;2023-11-21T12:07:51;94798.81;;;12.50;80.62
20003;BME280;10162;41.600;23.806;2023-11-21T12:10:22;94811.47;;;12.77;77.58
20003;BME280;10162;41.600;23.806;2023-11-21T12:12:51;94795.56;;;12.29;82.05
20003;BME280;10162;41.600;23.806;2023-11-21T12:19:17;94775.63;;;12.22;83.15
20003;BME280;10162;41.600;23.806;2023-11-21T12:21:44;94775.56;;;12.78;81.23
20003;BME280;10162;41.600;23.806;2023-11-21T12:24:14;94782.47;;;12.72;81.60
20003;BME280;10162;41.600;23.806;2023-11-21T12:26:42;94796.25;;;12.68;79.65
20003;BME280;10162;41.600;23.806;2023-11-21T12:29:08;94785.53;;;12.45;80.26
20003;BME280;10162;41.600;23.806;2023-11-21T12:31:34;94785.75;;;12.43;81.04
20003;BME280;10162;41.600;23.806;2023-11-21T12:34:04;94781.81;;;12.34;79.81
20003;BME280;10162;41.600;23.806;2023-11-21T12:36:32;94778.56;;;12.07;82.39
20003;BME280;10162;41.600;23.806;2023-11-21T12:38:59;94764.16;;;11.91;84.07
20003;BME280;10162;41.600;23.806;2023-11-21T12:41:25;94773.34;;;12.07;84.79
20003;BME280;10162;41.600;23.806;2023-11-21T12:43:59;94777.50;;;11.83;84.82
20003;BME280;10162;41.600;23.806;2023-11-21T12:46:26;94768.44;;;11.79;85.57
20003;BME280;10162;41.600;23.806;2023-11-21T12:48:55;94764.84;;;11.74;87.26
20003;BME280;10162;41.600;23.806;2023-11-21T12:51:21;94769.06;;;11.81;89.34
20003;BME280;10162;41.600;23.806;2023-11-21T12:57:06;94753.59;;;12.05;86.89
20003;BME280;10162;41.600;23.806;2023-11-21T12:59:33;94759.69;;;11.98;86.65
20003;BME280;10162;41.600;23.806;2023-11-21T13:02:01;94753.78;;;11.72;86.68
20003;BME280;10162;41.600;23.806;2023-11-21T13:05:02;94755.72;;;12.14;86.32
20003;BME280;10162;41.600;23.806;2023-11-21T13:07:42;94757.50;;;12.20;87.61
20003;BME280;10162;41.600;23.806;2023-11-21T13:10:16;94756.16;;;12.36;84.59
20003;BME280;10162;41.600;23.806;2023-11-21T13:12:44;94750.34;;;12.34;84.44
20003;BME280;10162;41.600;23.806;2023-11-21T13:15:20;94749.53;;;12.09;87.79
20003;BME280;10162;41.600;23.806;2023-11-21T13:17:46;94758.47;;;12.26;87.05
20003;BME280;10162;41.600;23.806;2023-11-21T13:20:13;94743.09;;;12.05;87.00
20003;BME280;10162;41.600;23.806;2023-11-21T13:22:54;94741.53;;;11.97;88.50
20003;BME280;10162;41.600;23.806;2023-11-21T13:25:43;94754.22;;;12.00;89.78
20003;BME280;10162;41.600;23.806;2023-11-21T13:28:11;94756.16;;;12.11;89.10
20003;BME280;10162;41.600;23.806;2023-11-21T13:30:38;94758.66;;;11.99;88.53
20003;BME280;10162;41.600;23.806;2023-11-21T13:33:06;94757.09;;;11.92;89.34
20003;BME280;10162;41.600;23.806;2023-11-21T13:35:37;94753.50;;;11.86;89.87
20003;BME280;10162;41.600;23.806;2023-11-21T13:38:09;94762.00;;;11.82;92.53
20003;BME280;10162;41.600;23.806;2023-11-21T13:40:36;94740.81;;;11.45;95.28
20003;BME280;10162;41.600;23.806;2023-11-21T13:43:09;94753.59;;;11.73;95.85
20003;BME280;10162;41.600;23.806;2023-11-21T13:45:41;94735.78;;;11.50;94.91
20003;BME280;10162;41.600;23.806;2023-11-21T13:48:08;94742.13;;;11.23;97.61
20003;BME280;10162;41.600;23.806;2023-11-21T13:50:39;94751.72;;;11.42;97.38
20003;BME280;10162;41.600;23.806;2023-11-21T13:53:36;94761.69;;;11.21;100.00
20003;BME280;10162;41.600;23.806;2023-11-21T13:56:04;94753.47;;;11.10;100.00
20003;BME280;10162;41.600;23.806;2023-11-21T13:59:05;94764.03;;;11.29;100.00
20003;BME280;10162;41.600;23.806;2023-11-21T14:02:05;94749.31;;;10.83;100.00
20003;BME280;10162;41.600;23.806;2023-11-21T14:04:56;94750.72;;;10.79;100.00
20003;BME280;10162;41.600;23.806;2023-11-21T14:07:26;94760.56;;;10.77;100.00
20003;BME280;10162;41.600;23.806;2023-11-21T14:10:02;94760.00;;;10.62;100.00
20003;BME280;10162;41.600;23.806;2023-11-21T14:12:29;94756.44;;;10.30;100.00
20003;BME280;10162;41.600;23.806;2023-11-21T14:15:05;94757.44;;;10.29;100.00
20003;BME280;10162;41.600;23.806;2023-11-21T14:17:34;94749.19;;;10.39;100.00
20003;BME280;10162;41.600;23.806;2023-11-21T14:20:01;94752.59;;;10.13;100.00
20003;BME280;10162;41.600;23.806;2023-11-21T14:22:30;94768.84;;;10.15;100.00
20003;BME280;10162;41.600;23.806;2023-11-21T14:27:52;94764.00;;;9.85;100.00
20003;BME280;10162;41.600;23.806;2023-11-21T14:30:18;94754.56;;;9.91;100.00
20003;BME280;10162;41.600;23.806;2023-11-21T14:32:45;94737.28;;;9.77;100.00
20003;BME280;10162;41.600;23.806;2023-11-21T14:35:47;94771.66;;;10.00;100.00
20003;BME280;10162;41.600;23.806;2023-11-21T14:38:44;94755.81;;;10.02;100.00
20003;BME280;10162;41.600;23.806;2023-11-21T14:41:10;94745.72;;;9.85;100.00
20003;BME280;10162;41.600;23.806;2023-11-21T14:43:45;94757.78;;;9.93;100.00
20003;BME280;10162;41.600;23.806;2023-11-21T14:46:15;94760.16;;;9.75;100.00
20003;BME280;10162;41.600;23.806;2023-11-21T14:49:12;94759.19;;;9.89;100.00
20003;BME280;10162;41.600;23.806;2023-11-21T14:51:53;94742.72;;;9.82;100.00
20003;BME280;10162;41.600;23.806;2023-11-21T14:58:23;94745.44;;;9.41;100.00
20003;BME280;10162;41.600;23.806;2023-11-21T15:01:16;94741.09;;;9.61;100.00
20003;BME280;10162;41.600;23.806;2023-11-21T15:07:55;94728.63;;;9.63;100.00
20003;BME280;10162;41.600;23.806;2023-11-21T15:10:24;94741.47;;;9.65;100.00
20003;BME280;10162;41.600;23.806;2023-11-21T15:13:04;94747.94;;;9.82;100.00
20003;BME280;10162;41.600;23.806;2023-11-21T15:18:46;94745.59;;;9.26;100.00
20003;BME280;10162;41.600;23.806;2023-11-21T15:25:12;94723.38;;;8.83;100.00
20003;BME280;10162;41.600;23.806;2023-11-21T15:27:55;94741.63;;;8.89;100.00
20003;BME280;10162;41.600;23.806;2023-11-21T15:30:24;94731.19;;;8.83;100.00
20003;BME280;10162;41.600;23.806;2023-11-21T15:32:59;94736.41;;;8.83;100.00
20003;BME280;10162;41.600;23.806;2023-11-21T15:39:20;94752.00;;;8.76;100.00
20003;BME280;10162;41.600;23.806;2023-11-21T15:41:54;94720.44;;;8.58;100.00
20003;BME280;10162;41.600;23.806;2023-11-21T15:48:18;94715.19;;;8.51;100.00
20003;BME280;10162;41.600;23.806;2023-11-21T15:50:44;94742.41;;;8.83;100.00
20003;BME280;10162;41.600;23.806;2023-11-21T15:53:10;94748.06;;;8.87;100.00
20003;BME280;10162;41.600;23.806;2023-11-21T15:55:36;94730.75;;;8.79;100.00
20003;BME280;10162;41.600;23.806;2023-11-21T15:58:09;94747.78;;;8.75;100.00
20003;BME280;10162;41.600;23.806;2023-11-21T16:00:35;94755.47;;;8.90;100.00
20003;BME280;10162;41.600;23.806;2023-11-21T16:03:01;94749.81;;;8.80;100.00
20003;BME280;10162;41.600;23.806;2023-11-21T16:09:30;94729.38;;;8.49;100.00
20003;BME280;10162;41.600;23.806;2023-11-21T16:12:04;94747.88;;;8.54;100.00
20003;BME280;10162;41.600;23.806;2023-11-21T16:18:39;94726.41;;;8.24;100.00
20003;BME280;10162;41.600;23.806;2023-11-21T16:21:12;94722.56;;;8.20;100.00
20003;BME280;10162;41.600;23.806;2023-11-21T16:27:32;94754.66;;;8.48;100.00
20003;BME280;10162;41.600;23.806;2023-11-21T16:29:57;94738.56;;;8.45;100.00
20003;BME280;10162;41.600;23.806;2023-11-21T16:32:23;94756.25;;;8.49;100.00
20003;BME280;10162;41.600;23.806;2023-11-21T16:38:43;94785.63;;;8.64;100.00
20003;BME280;10162;41.600;23.806;2023-11-21T16:41:09;94777.88;;;8.50;100.00
20003;BME280;10162;41.600;23.806;2023-11-21T16:47:29;94766.69;;;8.56;100.00
20003;BME280;10162;41.600;23.806;2023-11-21T16:49:55;94759.16;;;8.67;100.00
20003;BME280;10162;41.600;23.806;2023-11-21T16:52:22;94760.53;;;8.98;100.00
20003;BME280;10162;41.600;23.806;2023-11-21T16:58:12;94765.94;;;9.57;100.00
20003;BME280;10162;41.600;23.806;2023-11-21T17:00:44;94773.81;;;9.70;100.00
20003;BME280;10162;41.600;23.806;2023-11-21T17:07:11;94773.44;;;9.73;100.00
20003;BME280;10162;41.600;23.806;2023-11-21T17:09:40;94752.72;;;9.65;100.00
20003;BME280;10162;41.600;23.806;2023-11-21T17:12:06;94752.09;;;9.50;100.00
20003;BME280;10162;41.600;23.806;2023-11-21T17:18:12;94749.38;;;9.17;100.00
20003;BME280;10162;41.600;23.806;2023-11-21T17:20:38;94772.31;;;9.28;100.00
20003;BME280;10162;41.600;23.806;2023-11-21T17:23:04;94754.41;;;9.25;100.00
20003;BME280;10162;41.600;23.806;2023-11-21T17:25:35;94753.81;;;9.23;100.00
20003;BME280;10162;41.600;23.806;2023-11-21T17:28:02;94765.66;;;9.26;100.00
20003;BME280;10162;41.600;23.806;2023-11-21T17:30:28;94747.56;;;9.11;100.00
20003;BME280;10162;41.600;23.806;2023-11-21T17:32:54;94747.31;;;8.99;100.00
20003;BME280;10162;41.600;23.806;2023-11-21T17:39:15;94732.41;;;8.87;100.00
20003;BME280;10162;41.600;23.806;2023-11-21T17:41:41;94741.81;;;8.81;100.00
20003;BME280;10162;41.600;23.806;2023-11-21T17:44:31;94746.78;;;8.76;100.00
20003;BME280;10162;41.600;23.806;2023-11-21T17:46:57;94718.63;;;8.58;100.00
20003;BME280;10162;41.600;23.806;2023-11-21T17:49:23;94743.78;;;8.79;100.00
20003;BME280;10162;41.600;23.806;2023-11-21T17:51:50;94730.09;;;9.05;100.00
20003;BME280;10162;41.600;23.806;2023-11-21T17:58:11;94751.72;;;9.66;100.00
20003;BME280;10162;41.600;23.806;2023-11-21T18:00:38;94740.66;;;9.51;100.00
20003;BME280;10162;41.600;23.806;2023-11-21T18:03:04;94758.56;;;9.67;100.00
20003;BME280;10162;41.600;23.806;2023-11-21T18:05:30;94747.31;;;9.60;100.00
20003;BME280;10162;41.600;23.806;2023-11-21T18:07:56;94739.81;;;9.37;100.00
20003;BME280;10162;41.600;23.806;2023-11-21T18:10:22;94737.31;;;9.09;100.00
20003;BME280;10162;41.600;23.806;2023-11-21T18:12:48;94733.00;;;8.82;100.00
20003;BME280;10162;41.600;23.806;2023-11-21T18:19:27;94718.72;;;8.37;100.00
20003;BME280;10162;41.600;23.806;2023-11-21T18:22:32;94695.09;;;8.45;100.00
20003;BME280;10162;41.600;23.806;2023-11-21T18:28:58;94727.50;;;9.18;100.00
20003;BME280;10162;41.600;23.806;2023-11-21T18:31:26;94695.72;;;8.95;100.00
20003;BME280;10162;41.600;23.806;2023-11-21T18:33:58;94712.72;;;9.38;100.00
20003;BME280;10162;41.600;23.806;2023-11-21T18:36:24;94703.13;;;9.59;100.00
20003;BME280;10162;41.600;23.806;2023-11-21T18:38:51;94722.03;;;9.87;100.00
20003;BME280;10162;41.600;23.806;2023-11-21T18:41:21;94718.44;;;9.94;100.00
20003;BME280;10162;41.600;23.806;2023-11-21T18:47:54;94728.28;;;9.99;100.00
20003;BME280;10162;41.600;23.806;2023-11-21T18:50:28;94710.78;;;9.80;100.00
20003;BME280;10162;41.600;23.806;2023-11-21T18:52:53;94722.25;;;9.79;100.00
20003;BME280;10162;41.600;23.806;2023-11-21T18:59:14;94722.63;;;9.82;100.00
20003;BME280;10162;41.600;23.806;2023-11-21T19:01:40;94703.34;;;9.64;100.00
20003;BME280;10162;41.600;23.806;2023-11-21T19:08:02;94717.81;;;8.99;100.00
20003;BME280;10162;41.600;23.806;2023-11-21T19:10:29;94734.13;;;9.14;100.00
20003;BME280;10162;41.600;23.806;2023-11-21T19:12:55;94725.06;;;9.03;100.00
20003;BME280;10162;41.600;23.806;2023-11-21T19:19:26;94733.03;;;8.54;100.00
20003;BME280;10162;41.600;23.806;2023-11-21T19:22:01;94712.06;;;8.35;100.00
20003;BME280;10162;41.600;23.806;2023-11-21T19:28:22;94715.13;;;8.45;100.00